Gavle, Sweden

8:03 PM CET on February 09, 2016 (GMT +0100)
Backa Kvarn | | Change Station
CLOSE
Current Station
Personal Weather Station
Location: Uppsala Län, UPPSALA LäN
Elevation: 98 ft
Nearby Weather Stations

Elev 98 ft 59.61 °N, 17.47 °E | Updated 1 minute ago

Mostly Cloudy
Mostly Cloudy
38.5 °F
Feels Like 38 °F
N
0.9
Wind Variable Wind from WSW
Gusts 5.0 mph

Today
High -- | Low -- °F
--% Chance of Precip.
Yesterday
High -- | Low -- °F
Precip. -- in
Pressure 29.03 in
Visibility 6.2 miles
Clouds Few 2700 ft
Mostly Cloudy 3600 ft
Windchill 38 °F
Dew Point 37 °F
Humidity 94%
Rainfall 0.07 in
Snow Depth Not available.
7:45 AM 4:26 PM
New Moon, 2% visible
METAR ESOW 091850Z 20011KT 9999 FEW027 BKN036 04/02 Q0983 R19/290195
Pressure 29.03 in
Visibility 6.2 miles
Clouds Few 2700 ft
Mostly Cloudy 3600 ft
Windchill 38 °F
Dew Point 37 °F
Humidity 94%
Rainfall 0.07 in
Snow Depth Not available.
7:45 AM 4:26 PM
New Moon, 2% visible
METAR ESOW 091850Z 20011KT 9999 FEW027 BKN036 04/02 Q0983 R19/290195

10-Day Weather Forecast

Almanac

Astronomy

Feb. 09, 2016 Rise Set
Actual Time
Civil Twilight
Nautical Twilight
Astronomical Twilight
Moon
Length of Visible Light
Length of Day
Tomorrow will be .
, % of the Moon is Illuminated

Today's Extremes

Country Highs Country Lows

Community

WunderPhotos

Upload Photos

1,891,664 photos uploaded!

WunderBlog® & News

Nearby

Air Quality

  Air Quality AQ Index Pollutant
Not available.

Snow Depth

Station Depth Elevation

Earthquake Activity

City Distance Mag. Time & Date
Minimum magnitude displayed is 2.5.

Coastal Water Temperatures

Place Temperature

Stations

Nearby Weather Stations

Station Location Temp. Windchill Dew Point Humidity Wind Precip. Elev Updated Type